»·PEaware :: N172SP KLAX-KSNA

N172SP :: KLAX-KSNA

FLIGHT INFORMATION

Flight Status: Arrived
Operator: Privately registered:
United States
More flights under this callsign
Pilot: Napoleon Ma Jr J. (21170)
Aircraft: CESSNA 172 SKYHAWK
(C172)
More flights by this aircraft type
Origin: KLAX Los Angeles Intl
United States
Destination: KSNA John Wayne-Orange Co
United States
More flights between these airports :: More routes between these airports
Route: SLI8 SLI
File this flight plan on PilotEdge
Remarks: I-6 Rating
Altitude:
(Current/Filed)
4,000ft
Speed:
(Current/Filed)
115kts
Departed: 02-Dec-18 01:18 PM
Arrived: 02-Dec-18 02:06 PM
Distance/Time
Traveled:
31nm/0:48
Distance/Time
To Go:
Arrived

Flight Plot

Page will automatically refresh every two minutes.

Flight plan parsing failed; only flown route is shown


Map Options




Map Legend


Flown Route
Filed Route
Departure Airport
Arrival Airport
Navaid (VOR, NDB)
Fix

Horizontal Profiles

Position Reports

Time Latitude Longitude Heading Altitude Ground
Speed
02-Dec-18 13:01 33.934136 -118.395574 175 106ft 0kts
02-Dec-18 13:02 33.934136 -118.395574 175 106ft 0kts
02-Dec-18 13:03 33.934136 -118.395574 175 106ft 0kts
02-Dec-18 13:04 33.934136 -118.395574 175 106ft 0kts
02-Dec-18 13:05 33.934136 -118.395574 175 106ft 0kts
02-Dec-18 13:06 33.934137 -118.395574 175 106ft 0kts
02-Dec-18 13:07 33.934137 -118.395574 175 106ft 0kts
02-Dec-18 13:08 33.934137 -118.395574 175 106ft 0kts
02-Dec-18 13:09 33.934137 -118.395574 175 106ft 0kts
02-Dec-18 13:10 33.934137 -118.395574 175 106ft 0kts
02-Dec-18 13:11 33.934137 -118.395574 175 106ft 0kts
02-Dec-18 13:12 33.934137 -118.395574 175 106ft 0kts
02-Dec-18 13:13 33.934137 -118.395574 175 106ft 0kts
02-Dec-18 13:14 33.934137 -118.395574 175 106ft 0kts
02-Dec-18 13:15 33.934137 -118.395574 175 106ft 0kts
02-Dec-18 13:16 33.934137 -118.395574 175 106ft 0kts
02-Dec-18 13:17 33.934137 -118.395574 175 106ft 0kts
02-Dec-18 13:18 33.934875 -118.395097 88 106ft 7kts
02-Dec-18 13:19 33.935679 -118.387048 83 99ft 29kts
02-Dec-18 13:20 33.936396 -118.382760 0 96ft 0kts
02-Dec-18 13:21 33.937002 -118.386912 272 116ft 64kts
02-Dec-18 13:22 33.934410 -118.411122 268 1037ft 77kts
02-Dec-18 13:23 33.931034 -118.436230 266 2000ft 73kts
02-Dec-18 13:24 33.920383 -118.457894 210 2861ft 86kts
02-Dec-18 13:25 33.898456 -118.470900 215 3683ft 88kts
02-Dec-18 13:26 33.873620 -118.486598 215 3976ft 108kts
02-Dec-18 13:27 33.845392 -118.485333 149 4014ft 113kts
02-Dec-18 13:28 33.821029 -118.462238 133 4041ft 112kts
02-Dec-18 13:29 33.797176 -118.436903 144 4011ft 113kts
02-Dec-18 13:30 33.773862 -118.411370 145 4022ft 113kts
02-Dec-18 13:31 33.750462 -118.385874 143 4022ft 115kts
02-Dec-18 13:32 33.727222 -118.358759 145 4024ft 114kts
02-Dec-18 13:33 33.704963 -118.332399 143 4018ft 112kts
02-Dec-18 13:34 33.682547 -118.306014 144 4020ft 114kts
02-Dec-18 13:35 33.670780 -118.272574 65 4014ft 116kts
02-Dec-18 13:36 33.687041 -118.240779 44 4024ft 110kts
02-Dec-18 13:37 33.704085 -118.210155 49 4036ft 110kts
02-Dec-18 13:38 33.719140 -118.178590 45 4032ft 108kts
02-Dec-18 13:39 33.735099 -118.148448 57 4036ft 108kts
02-Dec-18 13:40 33.748928 -118.119096 39 4037ft 99kts
02-Dec-18 13:41 33.763229 -118.092967 52 4010ft 103kts
02-Dec-18 13:42 33.778353 -118.065129 46 4008ft 100kts
02-Dec-18 13:43 33.790689 -118.035559 51 4001ft 100kts
02-Dec-18 13:44 33.803604 -118.006472 55 4011ft 100kts
02-Dec-18 13:45 33.814771 -117.976289 54 4025ft 98kts
02-Dec-18 13:46 33.827181 -117.947040 58 4020ft 98kts
02-Dec-18 13:47 33.839175 -117.917758 55 4032ft 96kts
02-Dec-18 13:48 33.851449 -117.888508 59 4013ft 99kts
02-Dec-18 13:49 33.861858 -117.858227 57 4022ft 98kts
02-Dec-18 13:50 33.873407 -117.828686 59 4027ft 98kts
02-Dec-18 13:51 33.884360 -117.798362 59 4021ft 99kts
02-Dec-18 13:52 33.896426 -117.768568 55 4021ft 100kts
02-Dec-18 13:53 33.909898 -117.739224 54 4025ft 100kts
02-Dec-18 13:54 33.923033 -117.709273 48 4023ft 101kts
02-Dec-18 13:55 33.943970 -117.688303 33 4025ft 100kts
02-Dec-18 13:56 33.962218 -117.692506 265 4022ft 90kts
02-Dec-18 13:57 33.937198 -117.705623 199 3826ft 108kts
02-Dec-18 13:58 33.910644 -117.720691 211 3568ft 103kts
02-Dec-18 13:59 33.885653 -117.735918 205 3471ft 97kts
02-Dec-18 14:00 33.860847 -117.751941 210 3447ft 104kts
02-Dec-18 14:01 33.835099 -117.768252 208 3423ft 105kts
02-Dec-18 14:02 33.809979 -117.784972 207 2981ft 101kts
02-Dec-18 14:03 33.786057 -117.800197 203 2428ft 96kts
02-Dec-18 14:04 33.763346 -117.814226 205 1862ft 93kts
02-Dec-18 14:05 33.740492 -117.828038 207 1399ft 89kts
02-Dec-18 14:06 33.720935 -117.840548 205 956ft 68kts
02-Dec-18 14:07 33.704100 -117.850875 206 595ft 73kts
02-Dec-18 14:08 33.685732 -117.862461 207 197ft 76kts
02-Dec-18 14:09 33.672912 -117.870600 207 60ft 23kts
02-Dec-18 14:10 33.669337 -117.871865 138 60ft 9kts
02-Dec-18 14:11 33.669153 -117.871615 127 60ft 0kts
02-Dec-18 14:12 33.669040 -117.871354 104 60ft 6kts
02-Dec-18 14:13 33.669955 -117.869053 132 60ft 7kts
02-Dec-18 14:14 33.669849 -117.868904 128 60ft 0kts

Navigation Log

Ident Type
Flight plan parsing failed, navigation log unavailable